Terminal Aerodrome Forecast
Issued by NWS Wilmington, NC

Home | Current Version | Previous Version | Text Only | Print | Product List | Glossary On
Versions: 1 2 3 4 5 6 7 8 9 10 11 12 13 14 15 16
000
FTUS42 KILM 280627 CCA
TAFMYR
TAF COR
KMYR 280627Z 2806/2906 19010KT P6SM SCT015
      TEMPO 2806/2810 BKN005
     FM281300 20009KT P6SM SCT090
     FM281900 19013KT P6SM FEW250
     FM290500 19009KT P6SM FEW250
      AMD LTD TO CLD VIS AND WIND TIL 281000=

USA.gov is the U.S. government's official web portal to all federal, state and local government web resources and services.